createdAt,value
2022-12-01T00:01:58.934Z,2.27
2022-12-01T00:04:25.305Z,2.48
2022-12-01T00:06:51.556Z,2.46
2022-12-01T00:09:19.886Z,2.54
2022-12-01T00:11:46.697Z,2.62
2022-12-01T00:14:12.957Z,2.45
2022-12-01T00:16:39.258Z,2.53
2022-12-01T00:19:05.666Z,2.75
2022-12-01T00:21:31.911Z,2.80
2022-12-01T00:23:58.179Z,2.76
2022-12-01T00:26:24.487Z,2.70
2022-12-01T00:28:50.739Z,2.74
2022-12-01T00:31:17.017Z,2.69
2022-12-01T00:33:43.342Z,2.76
2022-12-01T00:36:09.586Z,2.75
2022-12-01T00:38:35.844Z,2.83
2022-12-01T00:41:02.116Z,2.88
2022-12-01T00:43:28.364Z,2.98
2022-12-01T00:45:54.863Z,3.04
2022-12-01T00:48:21.153Z,3.06
2022-12-01T00:50:47.412Z,3.12
2022-12-01T00:53:13.660Z,3.19
2022-12-01T00:55:40.084Z,3.22
2022-12-01T00:58:06.344Z,3.16
2022-12-01T01:00:32.677Z,2.85
2022-12-01T01:02:58.976Z,2.90
2022-12-01T01:05:25.233Z,2.95
2022-12-01T01:07:51.546Z,3.10
2022-12-01T01:10:17.891Z,3.17
2022-12-01T01:12:44.288Z,3.14
2022-12-01T01:15:10.622Z,3.25
2022-12-01T01:17:36.906Z,2.95
2022-12-01T01:20:03.225Z,2.78
2022-12-01T01:22:29.499Z,2.65
2022-12-01T01:24:55.772Z,2.51
2022-12-01T01:27:22.080Z,2.50
2022-12-01T01:29:48.530Z,2.36
2022-12-01T01:32:14.960Z,2.46
2022-12-01T01:34:41.224Z,2.46
2022-12-01T01:37:07.522Z,2.46
2022-12-01T01:39:33.825Z,2.40
2022-12-01T01:42:00.179Z,2.38
2022-12-01T01:44:26.443Z,2.31
2022-12-01T01:46:52.709Z,2.40
2022-12-01T01:49:18.970Z,2.31
2022-12-01T01:51:45.215Z,2.43
2022-12-01T01:54:11.461Z,2.62
2022-12-01T01:56:37.734Z,2.77
2022-12-01T01:59:04.005Z,2.95
2022-12-01T02:01:30.327Z,3.00
2022-12-01T02:03:56.628Z,3.13
2022-12-01T02:06:22.949Z,3.14
2022-12-01T02:08:49.208Z,3.03
2022-12-01T02:11:15.539Z,3.11
2022-12-01T02:13:41.813Z,2.99
2022-12-01T02:16:08.074Z,3.11
2022-12-01T02:18:34.403Z,3.15
2022-12-01T02:21:00.732Z,3.19
2022-12-01T02:23:26.972Z,3.06
2022-12-01T02:25:53.300Z,2.98
2022-12-01T02:28:19.566Z,2.92
2022-12-01T02:30:45.872Z,3.03
2022-12-01T02:33:12.228Z,2.94
2022-12-01T02:35:38.503Z,3.03
2022-12-01T02:38:04.779Z,3.19
2022-12-01T02:40:31.103Z,3.01
2022-12-01T02:42:57.373Z,2.92
2022-12-01T02:45:23.632Z,3.00
2022-12-01T02:47:49.877Z,3.07
2022-12-01T02:50:16.211Z,2.95
2022-12-01T02:52:42.524Z,2.89
2022-12-01T02:55:08.780Z,2.84
2022-12-01T02:57:35.046Z,2.87
2022-12-01T03:00:01.335Z,2.93
2022-12-01T03:02:27.729Z,2.90
2022-12-01T03:04:54.056Z,3.03
2022-12-01T03:07:20.372Z,3.02
2022-12-01T03:09:47.014Z,3.01
2022-12-01T03:12:13.707Z,3.04
2022-12-01T03:14:39.965Z,2.90
2022-12-01T03:17:06.233Z,2.94
2022-12-01T03:19:32.492Z,2.83
2022-12-01T03:21:58.755Z,2.76
2022-12-01T03:24:25.023Z,2.63
2022-12-01T03:26:51.303Z,2.68
2022-12-01T03:29:17.633Z,2.65
2022-12-01T03:31:43.990Z,2.75
2022-12-01T03:34:10.300Z,2.69
2022-12-01T03:36:36.570Z,2.58
2022-12-01T03:39:02.811Z,2.64
2022-12-01T03:41:29.095Z,2.60
2022-12-01T03:43:55.374Z,2.55
2022-12-01T03:46:21.766Z,2.48
2022-12-01T03:48:48.078Z,2.48
2022-12-01T03:51:14.344Z,2.59
2022-12-01T03:53:40.600Z,2.46
2022-12-01T03:56:06.864Z,2.54
2022-12-01T03:58:33.124Z,2.60
2022-12-01T04:00:59.390Z,2.74
2022-12-01T04:03:25.660Z,2.72
2022-12-01T04:05:51.919Z,2.74
2022-12-01T04:08:18.172Z,2.80
2022-12-01T04:10:44.466Z,2.86
2022-12-01T04:13:30.713Z,2.78
2022-12-01T04:15:57.103Z,2.75
2022-12-01T04:18:23.415Z,2.77
2022-12-01T04:20:49.747Z,2.76
2022-12-01T04:23:16.034Z,2.75
2022-12-01T04:25:42.282Z,2.83
2022-12-01T04:28:08.528Z,3.03
2022-12-01T04:30:34.788Z,3.04
2022-12-01T04:33:01.056Z,3.03
2022-12-01T04:35:27.433Z,3.08
2022-12-01T04:37:53.762Z,3.09
2022-12-01T04:40:20.027Z,3.10
2022-12-01T04:42:46.413Z,3.08
2022-12-01T04:45:12.755Z,2.99
2022-12-01T04:47:39.005Z,3.09
2022-12-01T04:50:05.349Z,2.76
2022-12-01T04:52:35.275Z,2.73
2022-12-01T04:55:01.866Z,2.90
2022-12-01T04:57:28.154Z,2.85
2022-12-01T04:59:54.426Z,2.95
2022-12-01T05:02:20.848Z,2.92
2022-12-01T05:04:47.127Z,2.94
2022-12-01T05:07:13.444Z,2.82
2022-12-01T05:09:39.748Z,2.84
2022-12-01T05:12:06.023Z,2.93
2022-12-01T05:14:32.355Z,2.98
2022-12-01T05:16:58.682Z,2.93
2022-12-01T05:19:24.927Z,3.02
2022-12-01T05:21:51.265Z,3.05
2022-12-01T05:24:17.536Z,3.06
2022-12-01T05:26:43.787Z,2.93
2022-12-01T05:29:10.111Z,2.92
2022-12-01T05:31:36.447Z,2.92
2022-12-01T05:34:02.762Z,2.89
2022-12-01T05:36:29.048Z,2.92
2022-12-01T05:38:55.313Z,2.91
2022-12-01T05:41:21.568Z,2.95
2022-12-01T05:43:47.854Z,3.03
2022-12-01T05:46:14.188Z,2.97
2022-12-01T05:48:40.555Z,3.04
2022-12-01T05:51:06.880Z,3.05
2022-12-01T05:53:33.157Z,3.13
2022-12-01T05:55:59.424Z,3.13
2022-12-01T05:58:25.759Z,3.09
2022-12-01T06:00:52.077Z,3.05
2022-12-01T06:03:18.346Z,3.19
2022-12-01T06:05:44.688Z,3.32
2022-12-01T06:08:10.979Z,3.28
2022-12-01T06:10:37.283Z,3.27
2022-12-01T06:13:03.604Z,3.36
2022-12-01T06:15:29.878Z,3.29
2022-12-01T06:17:56.537Z,3.43
2022-12-01T06:20:23.010Z,3.31
2022-12-01T06:22:49.285Z,3.37
2022-12-01T06:25:15.548Z,3.41
2022-12-01T06:27:41.898Z,3.41
2022-12-01T06:30:08.211Z,3.41
2022-12-01T06:32:34.486Z,3.48
2022-12-01T06:35:01.660Z,3.52
2022-12-01T06:37:28.323Z,3.47
2022-12-01T06:39:55.067Z,3.60
2022-12-01T06:42:21.357Z,3.60
2022-12-01T06:44:47.635Z,3.55
2022-12-01T06:47:13.902Z,3.65
2022-12-01T06:49:40.158Z,3.60
2022-12-01T06:52:06.437Z,3.69
2022-12-01T06:54:32.720Z,3.72
2022-12-01T06:56:59.040Z,3.77
2022-12-01T06:59:25.511Z,3.78
2022-12-01T07:01:51.938Z,3.74
2022-12-01T07:04:18.227Z,3.75
2022-12-01T07:06:44.586Z,3.87
2022-12-01T07:09:10.872Z,3.79
2022-12-01T07:11:37.193Z,3.76
2022-12-01T07:14:03.467Z,3.80
2022-12-01T07:16:29.840Z,3.61
2022-12-01T07:18:56.471Z,3.71
2022-12-01T07:21:22.922Z,3.83
2022-12-01T07:23:49.261Z,3.91
2022-12-01T07:26:15.603Z,3.77
2022-12-01T07:28:41.921Z,3.87
2022-12-01T07:31:08.275Z,3.86
2022-12-01T07:33:34.635Z,3.96
2022-12-01T07:36:00.940Z,3.93
2022-12-01T07:38:27.214Z,4.01
2022-12-01T07:40:53.523Z,4.09
2022-12-01T07:43:19.790Z,4.04
2022-12-01T07:45:46.091Z,4.10
2022-12-01T07:48:12.455Z,4.15
2022-12-01T07:50:38.762Z,4.12
2022-12-01T07:53:05.033Z,4.13
2022-12-01T07:55:31.548Z,4.09
2022-12-01T07:57:57.948Z,4.16
2022-12-01T08:00:24.242Z,4.20
2022-12-01T08:02:50.720Z,4.25
2022-12-01T08:05:17.109Z,4.28
2022-12-01T08:07:43.467Z,4.32
2022-12-01T08:10:09.834Z,4.36
2022-12-01T08:12:36.140Z,4.32
2022-12-01T08:15:02.435Z,4.32
2022-12-01T08:17:28.728Z,4.26
2022-12-01T08:19:55.003Z,4.16
2022-12-01T08:22:21.538Z,4.24
2022-12-01T08:24:47.864Z,4.26
2022-12-01T08:27:14.134Z,4.31
2022-12-01T08:29:40.411Z,4.39
2022-12-01T08:32:06.669Z,4.50
2022-12-01T08:34:33.015Z,4.53
2022-12-01T08:36:59.309Z,4.40
2022-12-01T08:39:25.586Z,4.61
2022-12-01T08:41:51.956Z,4.61
2022-12-01T08:44:18.285Z,4.76
2022-12-01T08:46:44.662Z,4.82
2022-12-01T08:49:10.987Z,4.85
2022-12-01T08:51:37.331Z,4.80
2022-12-01T08:54:03.640Z,4.97
2022-12-01T08:56:29.891Z,5.10
2022-12-01T08:58:56.207Z,5.21
2022-12-01T09:01:22.602Z,5.32
2022-12-01T09:03:48.923Z,5.45
2022-12-01T09:06:15.240Z,5.54
2022-12-01T09:08:41.541Z,5.72
2022-12-01T09:11:07.811Z,5.69
2022-12-01T09:13:34.078Z,5.79
2022-12-01T09:16:00.398Z,5.21
2022-12-01T09:18:26.692Z,5.42
2022-12-01T09:20:52.964Z,5.32
2022-12-01T09:23:19.479Z,4.31
2022-12-01T09:25:45.817Z,4.05
2022-12-01T09:28:12.159Z,4.59
2022-12-01T09:30:39.543Z,4.71
2022-12-01T09:33:05.854Z,4.57
2022-12-01T09:35:32.255Z,3.55
2022-12-01T09:37:58.578Z,3.16
2022-12-01T09:40:24.905Z,2.95
2022-12-01T09:42:51.354Z,3.22
2022-12-01T09:45:17.663Z,3.33
2022-12-01T09:47:43.951Z,3.45
2022-12-01T09:50:10.297Z,2.90
2022-12-01T09:52:36.654Z,2.82
2022-12-01T09:55:02.993Z,3.27
2022-12-01T09:57:29.479Z,3.66
2022-12-01T09:59:57.124Z,3.84
2022-12-01T10:02:23.458Z,3.97
2022-12-01T10:04:49.849Z,4.12
2022-12-01T10:07:16.120Z,4.24
2022-12-01T10:09:42.401Z,4.50
2022-12-01T10:12:08.814Z,4.02
2022-12-01T10:14:35.113Z,3.86
2022-12-01T10:17:01.435Z,4.26
2022-12-01T10:19:27.690Z,4.45
2022-12-01T10:21:54.059Z,4.56
2022-12-01T10:24:20.340Z,4.71
2022-12-01T10:26:46.637Z,4.82
2022-12-01T10:29:13.010Z,4.86
2022-12-01T10:31:39.411Z,4.91
2022-12-01T10:34:05.677Z,4.98
2022-12-01T10:36:31.993Z,5.07
2022-12-01T10:38:58.282Z,5.20
2022-12-01T10:41:24.547Z,5.32
2022-12-01T10:43:50.985Z,5.38
2022-12-01T10:46:17.465Z,5.40
2022-12-01T10:48:43.736Z,5.43
2022-12-01T10:51:10.217Z,5.36
2022-12-01T10:53:36.594Z,5.32
2022-12-01T10:56:02.896Z,5.35
2022-12-01T10:58:29.174Z,5.42
2022-12-01T11:01:00.392Z,5.42
2022-12-01T11:03:27.322Z,5.29
2022-12-01T11:05:53.796Z,5.20
2022-12-01T11:08:20.121Z,5.21
2022-12-01T11:10:46.458Z,5.24
2022-12-01T11:13:12.787Z,5.17
2022-12-01T11:15:39.091Z,5.19
2022-12-01T11:18:05.379Z,5.11
2022-12-01T11:20:31.697Z,5.01
2022-12-01T11:22:58.044Z,5.13
2022-12-01T11:25:24.324Z,5.10
2022-12-01T11:27:50.663Z,5.15
2022-12-01T11:30:16.947Z,5.01
2022-12-01T11:32:43.266Z,5.05
2022-12-01T11:35:09.547Z,5.13
2022-12-01T11:37:35.811Z,5.03
2022-12-01T11:40:02.082Z,5.09
2022-12-01T11:42:28.364Z,5.06
2022-12-01T11:44:54.631Z,5.05
2022-12-01T11:47:23.646Z,5.02
2022-12-01T11:49:50.825Z,4.92
2022-12-01T11:52:17.207Z,4.89
2022-12-01T11:54:44.357Z,4.94
2022-12-01T11:57:33.051Z,4.97
2022-12-01T11:59:56.964Z,4.82
2022-12-01T12:02:23.306Z,4.88
2022-12-01T12:04:49.630Z,4.87
2022-12-01T12:07:15.853Z,4.93
2022-12-01T12:09:46.025Z,4.82
2022-12-01T12:12:12.345Z,4.88
2022-12-01T12:14:38.644Z,5.00
2022-12-01T12:17:04.959Z,5.00
2022-12-01T12:19:34.235Z,4.89
2022-12-01T12:22:05.768Z,4.94
2022-12-01T12:24:32.084Z,4.89
2022-12-01T12:26:58.414Z,5.00
2022-12-01T12:29:24.759Z,5.07
2022-12-01T12:31:51.028Z,5.01
2022-12-01T12:34:17.290Z,4.97
2022-12-01T12:36:43.699Z,4.89
2022-12-01T12:39:15.132Z,4.90
2022-12-01T12:41:42.967Z,4.93
2022-12-01T12:44:09.344Z,4.96
2022-12-01T12:46:36.380Z,4.94
2022-12-01T12:49:19.245Z,4.89
2022-12-01T12:51:48.271Z,4.73
2022-12-01T12:54:14.596Z,4.66
2022-12-01T12:56:40.891Z,4.82
2022-12-01T12:59:07.316Z,4.95
2022-12-01T13:01:33.689Z,5.00
2022-12-01T13:04:00.027Z,5.18
2022-12-01T13:06:26.395Z,5.18
2022-12-01T13:08:52.687Z,5.23
2022-12-01T13:11:18.959Z,5.29
2022-12-01T13:13:45.350Z,5.29
2022-12-01T13:16:11.686Z,5.30
2022-12-01T13:18:37.977Z,5.10
2022-12-01T13:21:04.271Z,4.82
2022-12-01T13:23:30.552Z,4.72
2022-12-01T13:25:56.831Z,4.71
2022-12-01T13:28:23.117Z,4.58
2022-12-01T13:30:51.135Z,4.34
2022-12-01T13:33:17.477Z,4.43
2022-12-01T13:35:43.764Z,4.23
2022-12-01T13:38:10.174Z,4.13
2022-12-01T13:40:36.433Z,4.15
2022-12-01T13:43:08.631Z,4.18
2022-12-01T13:45:36.860Z,4.09
2022-12-01T13:48:03.175Z,4.05
2022-12-01T13:50:29.439Z,4.02
2022-12-01T13:52:55.742Z,4.06
2022-12-01T13:55:22.031Z,4.01
2022-12-01T13:57:48.365Z,4.19
2022-12-01T14:00:14.701Z,4.14
2022-12-01T14:02:41.067Z,4.16
2022-12-01T14:05:07.497Z,4.09
2022-12-01T14:07:36.335Z,3.96
2022-12-01T14:10:02.672Z,3.89
2022-12-01T14:12:28.941Z,3.96
2022-12-01T14:14:55.802Z,3.97
2022-12-01T14:17:22.265Z,3.84
2022-12-01T14:19:48.604Z,3.90
2022-12-01T14:22:14.913Z,3.76
2022-12-01T14:24:41.186Z,3.92
2022-12-01T14:27:07.545Z,3.65
2022-12-01T14:29:33.900Z,3.75
2022-12-01T14:32:00.242Z,3.70
2022-12-01T14:34:26.554Z,3.76
2022-12-01T14:36:52.876Z,3.72
2022-12-01T14:39:19.151Z,3.69
2022-12-01T14:41:45.491Z,3.61
2022-12-01T14:44:11.864Z,3.66
2022-12-01T14:46:38.229Z,3.72
2022-12-01T14:49:04.640Z,3.82
2022-12-01T14:51:30.940Z,3.83
2022-12-01T14:53:57.218Z,3.80
2022-12-01T14:56:23.509Z,3.70
2022-12-01T14:58:49.850Z,3.67
2022-12-01T15:01:16.238Z,3.60
2022-12-01T15:03:42.546Z,3.54
2022-12-01T15:06:08.831Z,3.49
2022-12-01T15:09:10.465Z,3.46
2022-12-01T15:11:22.504Z,3.50
2022-12-01T15:13:48.852Z,3.52
2022-12-01T15:16:15.134Z,3.54
2022-12-01T15:18:41.453Z,3.45
2022-12-01T15:21:07.702Z,3.46
2022-12-01T15:23:33.955Z,3.37
2022-12-01T15:26:00.292Z,3.29
2022-12-01T15:28:26.578Z,3.19
2022-12-01T15:30:52.855Z,3.14
2022-12-01T15:33:24.007Z,3.26
2022-12-01T15:35:53.172Z,3.12
2022-12-01T15:38:19.620Z,3.14
2022-12-01T15:43:32.219Z,3.10
2022-12-01T15:45:58.553Z,3.05
2022-12-01T15:48:24.839Z,2.93
2022-12-01T15:50:51.171Z,2.74
2022-12-01T15:53:17.482Z,2.75
2022-12-01T15:55:43.756Z,2.82
2022-12-01T15:58:10.095Z,2.75
2022-12-01T16:00:36.461Z,2.75
2022-12-01T16:03:02.735Z,2.80
2022-12-01T16:05:29.001Z,2.79
2022-12-01T16:10:41.686Z,2.71
2022-12-01T16:13:08.003Z,2.68
2022-12-01T16:15:34.328Z,2.56
2022-12-01T16:18:00.585Z,2.65
2022-12-01T16:20:26.916Z,2.60
2022-12-01T16:22:53.204Z,2.51
2022-12-01T16:25:19.539Z,2.60
2022-12-01T16:27:45.870Z,2.61
2022-12-01T16:30:12.203Z,2.48
2022-12-01T16:32:38.478Z,2.37
2022-12-01T16:35:04.759Z,2.47
2022-12-01T16:37:31.057Z,2.44
2022-12-01T16:39:57.389Z,2.48
2022-12-01T16:42:23.778Z,2.49
2022-12-01T16:44:50.262Z,2.49
2022-12-01T16:47:16.742Z,2.51
2022-12-01T16:49:43.056Z,2.51
2022-12-01T16:52:36.656Z,2.44
2022-12-01T16:54:55.597Z,2.58
2022-12-01T16:57:21.858Z,2.51
2022-12-01T16:59:48.143Z,2.54
2022-12-01T17:02:14.565Z,2.48
2022-12-01T17:04:40.922Z,2.43
2022-12-01T17:07:07.228Z,2.29
2022-12-01T17:09:33.502Z,2.23
2022-12-01T17:11:59.953Z,1.97
2022-12-01T17:14:26.217Z,2.12
2022-12-01T17:16:52.487Z,2.19
2022-12-01T17:19:21.098Z,2.23
2022-12-01T17:21:50.189Z,2.19
2022-12-01T17:24:19.233Z,2.29
2022-12-01T17:26:45.775Z,2.32
2022-12-01T17:29:12.053Z,2.30
2022-12-01T17:31:38.781Z,2.24
2022-12-01T17:34:05.170Z,2.27
2022-12-01T17:36:31.454Z,2.33
2022-12-01T17:38:57.891Z,2.39
2022-12-01T17:41:24.406Z,2.44
2022-12-01T17:43:50.712Z,2.46
2022-12-01T17:46:17.046Z,2.37
2022-12-01T17:48:43.430Z,2.52
2022-12-01T17:51:09.712Z,2.62
2022-12-01T17:53:35.953Z,2.52
2022-12-01T17:56:02.227Z,2.50
2022-12-01T17:58:28.527Z,2.67
2022-12-01T18:00:54.816Z,2.69
2022-12-01T18:03:21.195Z,2.57
2022-12-01T18:05:47.576Z,2.52
2022-12-01T18:08:13.838Z,2.61
2022-12-01T18:10:40.100Z,2.58
2022-12-01T18:13:06.457Z,2.55
2022-12-01T18:15:34.773Z,2.66
2022-12-01T18:18:01.202Z,2.70
2022-12-01T18:20:27.636Z,2.79
2022-12-01T18:22:54.076Z,2.77
2022-12-01T18:25:20.339Z,2.76
2022-12-01T18:27:46.671Z,2.84
2022-12-01T18:30:12.983Z,2.88
2022-12-01T18:32:40.328Z,2.89
2022-12-01T18:35:06.696Z,3.00
2022-12-01T18:37:33.028Z,2.85
2022-12-01T18:39:59.308Z,3.00
2022-12-01T18:42:25.641Z,2.74
2022-12-01T18:44:52.175Z,2.82
2022-12-01T18:47:18.781Z,2.78
2022-12-01T18:49:45.052Z,2.85
2022-12-01T18:52:11.375Z,2.81
2022-12-01T18:54:37.686Z,2.90
2022-12-01T18:57:03.955Z,2.97
2022-12-01T18:59:30.271Z,2.87
2022-12-01T19:01:56.712Z,2.85
2022-12-01T19:04:23.026Z,3.04
2022-12-01T19:06:49.363Z,3.20
2022-12-01T19:09:15.705Z,3.23
2022-12-01T19:11:42.001Z,3.13
2022-12-01T19:14:08.358Z,3.19
2022-12-01T19:16:34.762Z,3.34
2022-12-01T19:19:01.248Z,3.41
2022-12-01T19:21:27.584Z,3.45
2022-12-01T19:23:53.967Z,3.52
2022-12-01T19:26:20.309Z,3.50
2022-12-01T19:28:46.597Z,3.61
2022-12-01T19:31:12.920Z,3.69
2022-12-01T19:33:39.275Z,3.66
2022-12-01T19:36:05.602Z,3.72
2022-12-01T19:38:31.908Z,3.64
2022-12-01T19:40:58.177Z,3.62
2022-12-01T19:43:24.514Z,3.61
2022-12-01T19:45:50.878Z,3.66
2022-12-01T19:48:17.224Z,3.60
2022-12-01T19:50:43.477Z,3.44
2022-12-01T19:53:09.904Z,3.48
2022-12-01T19:55:36.172Z,3.52
2022-12-01T19:58:02.473Z,3.48
2022-12-01T20:00:28.755Z,3.44
2022-12-01T20:02:55.091Z,3.48
2022-12-01T20:05:21.369Z,3.41
2022-12-01T20:07:47.776Z,3.38
2022-12-01T20:10:14.145Z,3.36
2022-12-01T20:12:40.419Z,3.41
2022-12-01T20:15:06.702Z,3.37
2022-12-01T20:17:33.058Z,3.19
2022-12-01T20:19:59.310Z,3.32
2022-12-01T20:22:25.634Z,3.25
2022-12-01T20:24:52.121Z,3.26
2022-12-01T20:27:18.569Z,3.31
2022-12-01T20:29:44.837Z,3.31
2022-12-01T20:32:11.118Z,3.38
2022-12-01T20:34:37.440Z,3.41
2022-12-01T20:37:03.710Z,3.36
2022-12-01T20:39:29.993Z,3.31
2022-12-01T20:41:56.263Z,3.15
2022-12-01T20:44:22.595Z,3.07
2022-12-01T20:46:48.911Z,3.13
2022-12-01T20:49:15.202Z,3.16
2022-12-01T20:51:41.547Z,3.12
2022-12-01T20:56:54.118Z,3.20
2022-12-01T20:59:20.407Z,3.11
2022-12-01T21:01:46.697Z,3.06
2022-12-01T21:04:13.030Z,3.05
2022-12-01T21:06:39.365Z,2.83
2022-12-01T21:09:05.612Z,2.75
2022-12-01T21:11:31.943Z,2.77
2022-12-01T21:13:58.214Z,2.71
2022-12-01T21:16:24.542Z,2.70
2022-12-01T21:18:50.922Z,2.42
2022-12-01T21:21:17.213Z,2.24
2022-12-01T21:23:43.485Z,2.31
2022-12-01T21:26:09.871Z,2.16
2022-12-01T21:28:36.164Z,2.09
2022-12-01T21:31:02.544Z,2.04
2022-12-01T21:33:28.888Z,2.06
2022-12-01T21:35:55.169Z,2.09
2022-12-01T21:38:22.226Z,2.25
2022-12-01T21:40:48.683Z,2.10
2022-12-01T21:43:15.119Z,2.08
2022-12-01T21:45:41.450Z,1.79
2022-12-01T21:48:07.776Z,1.78
2022-12-01T21:50:34.067Z,1.96
2022-12-01T21:53:00.404Z,1.91
2022-12-01T21:55:26.657Z,1.80
2022-12-01T21:57:52.918Z,1.57
2022-12-01T22:00:19.236Z,1.45
2022-12-01T22:02:45.613Z,1.36
2022-12-01T22:05:11.996Z,1.40
2022-12-01T22:07:38.318Z,1.40
2022-12-01T22:10:08.923Z,1.55
2022-12-01T22:12:35.597Z,1.63
2022-12-01T22:15:01.865Z,1.73
2022-12-01T22:17:28.202Z,1.66
2022-12-01T22:19:54.565Z,1.59
2022-12-01T22:22:20.832Z,1.46
2022-12-01T22:24:47.118Z,1.38
2022-12-01T22:27:13.398Z,1.36
2022-12-01T22:29:39.681Z,1.44
2022-12-01T22:32:06.027Z,1.24
2022-12-01T22:34:32.324Z,1.40
2022-12-01T22:36:58.665Z,1.34
2022-12-01T22:39:25.004Z,1.39
2022-12-01T22:41:51.299Z,1.54
2022-12-01T22:44:17.568Z,1.54
2022-12-01T22:46:43.924Z,1.56
2022-12-01T22:49:10.221Z,1.45
2022-12-01T22:51:36.549Z,1.46
2022-12-01T22:54:02.869Z,1.33
2022-12-01T22:56:29.147Z,1.40
2022-12-01T22:58:55.417Z,1.49
2022-12-01T23:01:21.786Z,1.54
2022-12-01T23:03:48.138Z,1.43
2022-12-01T23:06:14.453Z,1.39
2022-12-01T23:08:40.791Z,1.30
2022-12-01T23:11:07.054Z,1.08
2022-12-01T23:13:33.320Z,0.95
2022-12-01T23:15:59.690Z,1.04
2022-12-01T23:18:25.990Z,1.15
2022-12-01T23:20:52.240Z,1.09
2022-12-01T23:23:18.563Z,1.22
2022-12-01T23:25:44.862Z,1.28
2022-12-01T23:28:11.136Z,1.11
2022-12-01T23:30:37.472Z,0.84
2022-12-01T23:33:04.163Z,0.78
2022-12-01T23:35:30.438Z,0.80
2022-12-01T23:37:56.976Z,0.70
2022-12-01T23:40:23.284Z,0.78
2022-12-01T23:42:49.591Z,0.66
2022-12-01T23:45:15.991Z,0.58
2022-12-01T23:47:42.288Z,0.56
2022-12-01T23:50:08.547Z,0.74
2022-12-01T23:52:34.822Z,0.64
2022-12-01T23:55:01.081Z,0.78
2022-12-01T23:57:27.407Z,0.54
2022-12-01T23:59:53.700Z,0.62
